Thursday, July 28, 2016, 2:12 PM EDT

KEZF, Fredericksburg, Shannon Airport

Location: Fredericksburg, VA, United States Lat: 38.267
Local Time: 2:12 PM EDT (18:12 GMT) Lon: -77.45
Time Zone: US/Eastern Elev: 85 ft

Show me the last for .
Show Decoded

2016-07-28 11:55 METAR KEZF 281555Z AUTO 00000KT 10SM CLR 29/24 A2989 RMK AO2 T02880239 =
2016-07-28 11:35 METAR KEZF 281535Z AUTO 00000KT 10SM CLR 28/24 A2990 RMK AO2 T02820240 =
2016-07-28 11:15 METAR KEZF 281515Z AUTO 00000KT 10SM CLR 28/24 A2990 RMK AO2 T02810239 =
2016-07-28 10:55 METAR KEZF 281455Z AUTO 00000KT 10SM CLR 28/24 A2990 RMK AO2 T02820239 =
2016-07-28 10:35 METAR KEZF 281435Z AUTO 00000KT 10SM CLR 28/24 A2990 RMK AO2 T02800237 =
2016-07-28 10:15 METAR KEZF 281415Z AUTO 00000KT 10SM CLR 28/24 A2990 RMK AO2 T02780240 =
2016-07-28 09:55 METAR KEZF 281355Z AUTO 20003KT 10SM CLR 28/24 A2990 RMK AO2 T02760236 =
2016-07-28 09:35 METAR KEZF 281335Z AUTO 00000KT 10SM CLR 28/24 A2989 RMK AO2 T02750235 =
2016-07-28 09:15 METAR KEZF 281315Z AUTO 00000KT 10SM CLR 27/24 A2990 RMK AO2 T02720235 =
2016-07-28 08:55 METAR KEZF 281255Z AUTO 00000KT 10SM CLR 27/24 A2991 RMK AO2 T02660239 =
2016-07-28 08:35 METAR KEZF 281235Z AUTO 00000KT 10SM CLR 26/25 A2991 RMK AO2 T02600248 =
2016-07-28 08:15 METAR KEZF 281215Z AUTO 16003KT 10SM CLR 26/25 A2991 RMK AO2 T02550250 =
2016-07-28 07:55 METAR KEZF 281155Z AUTO 00000KT 10SM CLR 25/25 A2991 RMK AO2 T02500250 10250
                 20231 =
2016-07-28 07:35 METAR KEZF 281135Z AUTO 00000KT 10SM CLR 25/25 A2991 RMK AO2 T02460246 =
2016-07-28 07:15 METAR KEZF 281115Z AUTO 00000KT 10SM CLR 24/24 A2991 RMK AO2 T02420242 =
2016-07-28 06:55 METAR KEZF 281055Z AUTO 00000KT 10SM CLR 24/24 A2991 RMK AO2 T02400240 =
2016-07-28 06:35 METAR KEZF 281035Z AUTO 21003KT 10SM CLR 23/23 A2990 RMK AO2 T02340234 =
2016-07-28 06:15 METAR KEZF 281015Z AUTO 00000KT 10SM CLR 23/23 A2990 RMK AO2 T02330233 =
2016-07-28 05:55 METAR KEZF 280955Z AUTO 00000KT 10SM CLR 24/24 A2989 RMK AO2 T02350235 =
2016-07-28 05:35 METAR KEZF 280935Z AUTO 00000KT 10SM SCT120 24/24 A2989 RMK AO2 T02350235 =
2016-07-28 05:15 METAR KEZF 280915Z AUTO 00000KT 10SM SCT110 24/24 A2989 RMK AO2 T02380238 =
2016-07-28 04:55 METAR KEZF 280855Z AUTO 00000KT 10SM SCT110 24/24 A2989 RMK AO2 T02390239 =
2016-07-28 04:35 METAR KEZF 280835Z AUTO 00000KT 10SM CLR 24/24 A2990 RMK AO2 T02360236 =
2016-07-28 04:15 METAR KEZF 280815Z AUTO 00000KT 10SM CLR 24/24 A2990 RMK AO2 T02430243 =
2016-07-28 03:55 METAR KEZF 280755Z AUTO 00000KT 10SM CLR 25/25 A2990 RMK AO2 T02450245 =
2016-07-28 03:35 METAR KEZF 280735Z AUTO 00000KT 10SM CLR 25/25 A2990 RMK AO2 T02460246 =
2016-07-28 03:15 METAR KEZF 280715Z AUTO 00000KT 10SM CLR 25/25 A2991 RMK AO2 T02450245 =
2016-07-28 02:55 METAR KEZF 280655Z AUTO 00000KT 10SM CLR 24/24 A2991 RMK AO2 T02410241 =
2016-07-28 02:35 METAR KEZF 280635Z AUTO 00000KT 10SM CLR 25/25 A2991 RMK AO2 T02460246 =
2016-07-28 02:15 METAR KEZF 280615Z AUTO 00000KT 10SM CLR 25/25 A2991 RMK AO2 T02500250 =
2016-07-28 01:55 METAR KEZF 280555Z AUTO 00000KT 10SM CLR 25/25 A2991 RMK AO2 T02460246 10300
                 20245 403490235 =
2016-07-28 01:35 METAR KEZF 280535Z AUTO 00000KT 10SM CLR 25/25 A2991 RMK AO2 T02480248 =
2016-07-28 01:15 METAR KEZF 280515Z AUTO 00000KT 10SM CLR 25/25 A2991 RMK AO2 T02500248 =
2016-07-28 00:55 METAR KEZF 280455Z AUTO 00000KT 10SM CLR 26/24 A2991 RMK AO2 T02600236 =
2016-07-28 00:35 METAR KEZF 280435Z AUTO 00000KT 10SM CLR 26/24 A2991 RMK AO2 T02590237 =
2016-07-28 00:15 METAR KEZF 280415Z AUTO 00000KT 10SM CLR 26/24 A2991 RMK AO2 T02610240 =
2016-07-27 23:55 METAR KEZF 280355Z AUTO 00000KT 10SM CLR 26/24 A2991 RMK AO2 T02590241 =
2016-07-27 23:35 METAR KEZF 280335Z AUTO 23004KT 10SM CLR 27/24 A2991 RMK AO2 T02660243 =
2016-07-27 23:15 METAR KEZF 280315Z AUTO 00000KT 10SM CLR 27/25 A2991 RMK AO2 T02680245 =
2016-07-27 22:55 METAR KEZF 280255Z AUTO 23004KT 10SM CLR 27/25 A2992 RMK AO2 T02670245 =
2016-07-27 22:35 METAR KEZF 280235Z AUTO 00000KT 10SM CLR 27/24 A2991 RMK AO2 T02680244 =
2016-07-27 22:15 METAR KEZF 280215Z AUTO 21004KT 10SM CLR 28/25 A2991 RMK AO2 T02750245 =
2016-07-27 21:55 METAR KEZF 280155Z AUTO 20003KT 10SM CLR 28/24 A2991 RMK AO2 T02770243 =
2016-07-27 21:35 METAR KEZF 280135Z AUTO 00000KT 10SM CLR 28/24 A2991 RMK AO2 T02820240 =
2016-07-27 21:15 METAR KEZF 280115Z AUTO 00000KT 10SM CLR 28/24 A2990 RMK AO2 T02840242 =
2016-07-27 20:55 METAR KEZF 280055Z AUTO 22005KT 10SM CLR 28/24 A2990 RMK AO2 T02800241 =
2016-07-27 20:35 METAR KEZF 280035Z AUTO 18004KT 10SM CLR 28/25 A2989 RMK AO2 T02830245 =
2016-07-27 20:15 METAR KEZF 280015Z AUTO 00000KT 10SM CLR 29/25 A2990 RMK AO2 T02920247 =
2016-07-27 19:55 METAR KEZF 272355Z AUTO 00000KT 10SM 30/24 A2990 RMK AO2 T02960239 10349 20294 =
2016-07-27 19:35 METAR KEZF 272335Z AUTO 00000KT 10SM 30/24 A2990 RMK AO2 T03000243 =
2016-07-27 19:15 METAR KEZF 272315Z AUTO 00000KT 10SM 31/24 A2991 RMK AO2 T03080240 =
2016-07-27 18:55 METAR KEZF 272255Z AUTO 20003KT 10SM 31/24 A2990 RMK AO2 T03110236 =
2016-07-27 18:35 METAR KEZF 272235Z AUTO 00000KT 10SM 31/25 A2990 RMK AO2 T03070254 =
2016-07-27 18:15 METAR KEZF 272215Z AUTO 21003KT 10SM 32/23 A2989 RMK AO2 T03200231 =
2016-07-27 17:55 METAR KEZF 272155Z AUTO 16003KT 10SM 32/23 A2990 RMK AO2 T03240234 =
2016-07-27 17:35 METAR KEZF 272135Z AUTO 00000KT 10SM 33/22 A2990 RMK AO2 T03340215 =
2016-07-27 17:15 METAR KEZF 272115Z AUTO 06004KT 10SM 34/21 A2989 RMK AO2 T03390210 =
2016-07-27 16:55 METAR KEZF 272055Z AUTO 08003KT 10SM 33/21 A2991 RMK AO2 T03320205 =
2016-07-27 16:35 METAR KEZF 272035Z AUTO 08005KT 10SM 33/21 A2990 RMK AO2 T03280210 =
2016-07-27 16:15 METAR KEZF 272015Z AUTO 05003KT 10SM 33/21 A2990 RMK AO2 T03300210 =
2016-07-27 15:55 METAR KEZF 271955Z AUTO 00000KT 10SM 33/21 A2991 RMK AO2 T03270209 =
2016-07-27 15:35 METAR KEZF 271935Z AUTO 07003KT 10SM 33/20 A2991 RMK AO2 T03290203 =
2016-07-27 15:15 METAR KEZF 271915Z AUTO 00000KT 10SM 33/20 A2991 RMK AO2 T03330201 =
2016-07-27 14:55 METAR KEZF 271855Z AUTO 00000KT 10SM 34/20 A2991 RMK AO2 T03390202 =
2016-07-27 14:35 METAR KEZF 271835Z AUTO 00000KT 10SM 34/20 A2992 RMK AO2 T03380200 =
2016-07-27 14:15 METAR KEZF 271815Z AUTO 10003KT 10SM 35/21 A2992 RMK AO2 T03470205 =

Support USWX by starting your Amazon purchase here.